Time;durP1;ratioP1;P1;durP2;ratioP2;P2;SDS_P1;SDS_P2;PMS_P1;PMS_P2;Temp;Humidity;BMP_temperature;BMP_pressure;BME280_temperature;BME280_humidity;BME280_pressure;Samples;Min_cycle;Max_cycle;Signal;HPM_P1;HPM_P2
2022/11/14 00:01:21;;;;;;;57.90;30.42;;;;;;;6.35;100.00;101863.72;12777421;23;20017;-91
2022/11/14 00:06:22;;;;;;;64.15;34.80;;;;;;;6.01;100.00;101804.41;12729173;23;20005;-81
2022/11/14 00:11:22;;;;;;;62.00;33.72;;;;;;;6.34;100.00;101856.56;12779750;23;20044;-89
2022/11/14 00:16:22;;;;;;;60.17;32.80;;;;;;;6.34;100.00;101844.78;12785489;23;20017;-91
2022/11/14 00:21:23;;;;;;;63.45;33.85;;;;;;;6.34;100.00;101837.41;12806868;23;20024;-90
2022/11/14 00:26:23;;;;;;;59.70;32.47;;;;;;;6.34;100.00;101842.88;12808336;23;20009;-91
2022/11/14 00:31:24;;;;;;;56.30;29.73;;;;;;;6.39;100.00;101839.56;12780092;23;20014;-89
2022/11/14 00:36:24;;;;;;;65.68;33.08;;;;;;;6.33;100.00;101833.00;12803799;23;20017;-90
2022/11/14 00:41:25;;;;;;;62.05;34.75;;;;;;;6.32;100.00;101825.81;12803411;23;20017;-91
2022/11/14 00:46:26;;;;;;;64.47;34.92;;;;;;;6.23;100.00;101814.22;12803085;23;20021;-89
2022/11/14 00:51:26;;;;;;;56.83;30.25;;;;;;;6.20;100.00;101817.38;12806200;23;20005;-86
2022/11/14 00:56:27;;;;;;;62.35;33.47;;;;;;;6.15;100.00;101808.91;12806155;23;20032;-91
2022/11/14 01:01:27;;;;;;;62.92;34.42;;;;;;;6.06;100.00;101805.50;12778126;23;20021;-90
2022/11/14 01:06:28;;;;;;;75.53;38.45;;;;;;;6.00;100.00;101797.28;12805777;23;20048;-91
2022/11/14 01:11:28;;;;;;;71.63;40.20;;;;;;;5.94;100.00;101789.84;12803958;23;20024;-90
2022/11/14 01:16:29;;;;;;;74.95;40.38;;;;;;;5.92;100.00;101781.00;12803537;23;20009;-90
2022/11/14 01:21:31;;;;;;;75.65;41.45;;;;;;;5.87;100.00;101765.22;12776869;23;20032;-90
2022/11/14 01:26:31;;;;;;;78.45;41.97;;;;;;;5.89;100.00;101765.00;12802453;23;20017;-91
2022/11/14 01:31:32;;;;;;;84.07;40.95;;;;;;;5.80;100.00;101758.84;12778996;23;20025;-91
2022/11/14 01:36:32;;;;;;;78.18;38.80;;;;;;;5.68;100.00;101746.78;12776526;23;20014;-90
2022/11/14 01:41:33;;;;;;;75.55;40.28;;;;;;;5.71;100.00;101735.47;12754291;23;20013;-89
2022/11/14 01:46:37;;;;;;;74.53;38.05;;;;;;;5.62;100.00;101735.63;12803506;23;20028;-85
2022/11/14 01:51:42;;;;;;;71.32;35.92;;;;;;;5.45;100.00;101709.66;12727963;23;20020;-90
2022/11/14 01:56:53;;;;;;;81.88;39.45;;;;;;;5.49;100.00;101715.56;12729678;23;20025;-90
2022/11/14 02:01:53;;;;;;;85.28;39.03;;;;;;;5.44;100.00;101714.28;12752657;23;20013;-90
2022/11/14 02:06:56;;;;;;;75.78;37.47;;;;;;;5.41;100.00;101709.22;12750138;23;20044;-91
2022/11/14 02:11:57;;;;;;;77.10;38.47;;;;;;;5.41;100.00;101692.81;12752594;23;20017;-89
2022/11/14 02:16:57;;;;;;;81.40;38.30;;;;;;;5.29;100.00;101664.38;12770334;23;20021;-91
2022/11/14 02:21:58;;;;;;;81.85;38.83;;;;;;;5.46;100.00;101681.31;12778085;23;20025;-90
2022/11/14 02:26:58;;;;;;;94.22;44.20;;;;;;;5.57;100.00;101688.09;12800377;23;20394;-89
2022/11/14 02:31:59;;;;;;;91.63;40.40;;;;;;;5.64;100.00;101680.78;12777411;23;20013;-90
2022/11/14 02:36:59;;;;;;;77.13;37.10;;;;;;;5.72;100.00;101672.41;12803897;23;20017;-91
2022/11/14 02:42:00;;;;;;;77.32;37.90;;;;;;;5.81;100.00;101651.25;12803865;23;20040;-90
2022/11/14 02:47:00;;;;;;;75.78;35.70;;;;;;;5.78;100.00;101646.19;12799903;23;20048;-91
2022/11/14 02:52:00;;;;;;;76.82;36.00;;;;;;;5.86;100.00;101635.06;12777993;23;20032;-80
2022/11/14 02:57:01;;;;;;;75.30;37.30;;;;;;;6.05;100.00;101652.63;12801973;23;20029;-90
2022/11/14 03:02:01;;;;;;;75.85;36.60;;;;;;;6.04;100.00;101646.31;12803073;23;20009;-90
2022/11/14 03:07:02;;;;;;;69.10;35.08;;;;;;;6.11;100.00;101649.06;12775182;23;20415;-90
2022/11/14 03:12:02;;;;;;;67.35;35.60;;;;;;;6.10;100.00;101639.19;12799622;23;20013;-91
2022/11/14 03:17:03;;;;;;;73.88;35.60;;;;;;;6.19;100.00;101646.13;12776048;23;20039;-90
2022/11/14 03:22:03;;;;;;;72.05;36.10;;;;;;;6.03;100.00;101619.19;12802190;23;20024;-90
2022/11/14 03:27:04;;;;;;;66.30;35.95;;;;;;;6.16;100.00;101618.38;12776751;23;20040;-90
2022/11/14 03:32:04;;;;;;;72.25;38.53;;;;;;;6.11;100.00;101609.94;12800163;23;20017;-90
2022/11/14 03:37:05;;;;;;;71.55;35.80;;;;;;;6.21;100.00;101627.63;12774580;23;20013;-84
2022/11/14 03:42:05;;;;;;;74.82;40.85;;;;;;;6.19;100.00;101627.00;12779095;23;20021;-91
2022/11/14 03:47:06;;;;;;;71.43;38.55;;;;;;;5.78;100.00;101556.00;12800973;23;20020;-90
2022/11/14 03:52:06;;;;;;;75.43;42.47;;;;;;;6.19;100.00;101618.78;12801809;23;20013;-88
2022/11/14 03:57:07;;;;;;;69.47;38.50;;;;;;;6.17;100.00;101615.44;12802389;23;20009;-90
2022/11/14 04:02:07;;;;;;;59.65;34.88;;;;;;;6.10;100.00;101614.59;12798914;23;20017;-90
2022/11/14 04:07:08;;;;;;;57.65;33.00;;;;;;;6.06;100.00;101596.91;12803133;23;20073;-89
2022/11/14 04:12:08;;;;;;;65.78;34.53;;;;;;;6.03;100.00;101584.47;12807009;23;20013;-90
2022/11/14 04:17:09;;;;;;;61.65;34.38;;;;;;;6.04;100.00;101591.66;12814251;23;20048;-90
2022/11/14 04:22:10;;;;;;;59.65;33.58;;;;;;;6.02;100.00;101591.00;12780272;23;20017;-90
2022/11/14 04:27:10;;;;;;;64.20;34.15;;;;;;;5.97;100.00;101577.09;12775085;23;20093;-80
2022/11/14 04:32:11;;;;;;;62.72;32.35;;;;;;;5.90;100.00;101556.25;12773346;23;20059;-89
2022/11/14 04:37:11;;;;;;;60.53;32.35;;;;;;;5.50;100.00;101498.75;12748418;23;20013;-89
2022/11/14 04:42:11;;;;;;;57.92;31.50;;;;;;;5.86;100.00;101558.56;12803834;23;20013;-90
2022/11/14 04:47:12;;;;;;;59.95;30.50;;;;;;;5.81;100.00;101561.91;12781122;23;20013;-89
2022/11/14 04:52:12;;;;;;;62.00;31.45;;;;;;;5.75;100.00;101554.53;12779622;23;20017;-89
2022/11/14 04:57:13;;;;;;;62.28;31.77;;;;;;;5.74;100.00;101566.50;12777856;23;20020;-88
2022/11/14 05:02:13;;;;;;;55.22;30.25;;;;;;;5.67;100.00;101565.66;12804362;23;20017;-89
2022/11/14 05:07:14;;;;;;;53.60;30.02;;;;;;;5.66;100.00;101567.53;12777366;23;20017;-89
2022/11/14 05:12:14;;;;;;;62.65;29.52;;;;;;;5.64;100.00;101558.72;12776421;23;20023;-89
2022/11/14 05:17:15;;;;;;;60.45;31.25;;;;;;;5.50;100.00;101526.06;12775644;23;20025;-79
2022/11/14 05:22:15;;;;;;;62.20;31.63;;;;;;;5.69;100.00;101540.88;12804357;23;20027;-90
2022/11/14 05:27:16;;;;;;;64.22;32.40;;;;;;;5.70;100.00;101537.91;12803574;23;20344;-90
2022/11/14 07:22:32;;;;;;;66.05;34.17;;;;;;;4.21;100.00;101364.69;12682453;22;20834;31
2022/11/14 07:27:33;;;;;;;70.78;36.50;;;;;;;4.40;100.00;101397.72;12652273;22;20012;-86
2022/11/14 07:32:34;;;;;;;70.70;36.20;;;;;;;4.62;100.00;101432.03;12823754;23;20087;-86
2022/11/14 07:37:34;;;;;;;68.70;36.20;;;;;;;4.65;100.00;101415.31;12826039;23;20457;-86
2022/11/14 07:42:35;;;;;;;72.15;33.97;;;;;;;3.86;100.00;101252.16;12825418;23;20043;-85
2022/11/14 07:47:35;;;;;;;73.18;36.72;;;;;;;5.19;100.00;101456.47;12824218;23;20303;-86
2022/11/14 07:52:36;;;;;;;75.53;37.72;;;;;;;5.24;100.00;101445.75;12850697;23;20081;-86
2022/11/14 07:57:36;;;;;;;70.18;35.85;;;;;;;4.76;100.00;101410.31;12849496;23;20004;-86
2022/11/14 08:02:36;;;;;;;76.03;36.78;;;;;;;4.51;100.00;101356.28;12825970;23;20095;-86
2022/11/14 08:07:37;;;;;;;60.25;32.17;;;;;;;5.34;100.00;101469.94;12851187;23;20019;-86
2022/11/14 08:12:38;;;;;;;64.38;32.47;;;;;;;5.33;100.00;101480.00;12826395;23;20028;-86
2022/11/14 08:17:38;;;;;;;63.15;32.42;;;;;;;4.80;100.00;101374.22;12855313;23;20003;-86
2022/11/14 08:22:39;;;;;;;61.30;33.83;;;;;;;4.61;100.00;101337.66;12831900;23;20024;-86
2022/11/14 08:27:39;;;;;;;60.20;33.65;;;;;;;5.30;100.00;101430.44;12808607;23;20016;-86
2022/11/14 08:32:40;;;;;;;57.65;31.63;;;;;;;5.68;100.00;101474.44;12793994;23;20009;-87
2022/11/14 08:37:40;;;;;;;54.85;31.83;;;;;;;5.11;100.00;101355.66;12767779;23;20001;-86
2022/11/14 08:42:41;;;;;;;65.10;33.70;;;;;;;4.50;100.00;101259.16;12818435;23;20023;-86
2022/11/14 08:47:41;;;;;;;60.83;31.58;;;;;;;5.82;100.00;101459.75;12768995;23;20009;-85
2022/11/14 08:52:42;;;;;;;53.22;29.63;;;;;;;4.65;100.00;101256.25;12768907;23;20000;-85
2022/11/14 08:57:42;;;;;;;54.42;31.38;;;;;;;5.66;100.00;101397.31;12769107;23;20338;-87
2022/11/14 09:02:43;;;;;;;57.75;32.35;;;;;;;5.62;100.00;101382.38;12772247;23;20086;-87
2022/11/14 09:07:43;;;;;;;55.45;31.40;;;;;;;5.44;100.00;101326.50;12770401;23;20008;-86
2022/11/14 09:12:44;;;;;;;50.00;30.00;;;;;;;5.30;100.00;101292.06;12768047;23;20008;-86
2022/11/14 09:17:44;;;;;;;50.70;29.30;;;;;;;5.59;100.00;101383.66;12816270;23;20401;-86
2022/11/14 09:22:45;;;;;;;52.10;29.65;;;;;;;6.15;100.00;101461.69;12764657;23;20052;-86
2022/11/14 09:27:45;;;;;;;55.92;32.33;;;;;;;4.25;100.00;101174.34;12792853;23;20013;-86
2022/11/14 09:32:46;;;;;;;52.80;29.02;;;;;;;4.96;100.00;101271.22;12776200;23;20447;-86
2022/11/14 09:37:46;;;;;;;51.90;29.27;;;;;;;5.46;100.00;101346.25;12776305;23;20009;-86
2022/11/14 09:43:03;;;;;;;58.58;30.40;;;;;;;6.36;100.00;101455.16;12799376;23;20023;-86
2022/11/14 09:48:05;;;;;;;;;;;;;;;6.51;100.00;101454.94;12951629;22;20008;-85
2022/11/14 09:53:21;;;;;;;53.60;29.50;;;;;;;6.37;100.00;101404.88;12925086;22;19900;-86
2022/11/14 09:58:22;;;;;;;54.90;31.07;;;;;;;6.41;100.00;101380.69;12900689;22;20079;-86
2022/11/14 10:03:32;;;;;;;47.58;28.00;;;;;;;6.89;100.00;101396.72;12899653;22;20441;-86
2022/11/14 10:09:06;;;;;;;46.10;28.38;;;;;;;6.31;100.00;101298.25;12900343;22;19996;-85
2022/11/14 10:14:44;;;;;;;48.95;27.38;;;;;;;7.53;100.00;101435.16;12924703;22;20000;-84
2022/11/14 10:19:59;;;;;;;47.17;26.60;;;;;;;7.31;100.00;101357.97;12932414;22;20361;-84
2022/11/14 10:25:17;;;;;;;46.70;27.13;;;;;;;7.22;100.00;101300.72;12950096;22;20030;-84
2022/11/14 10:30:18;;;;;;;47.33;26.45;;;;;;;7.08;100.00;101256.16;12950911;22;20030;-84
2022/11/14 10:35:22;;;;;;;49.42;27.92;;;;;;;7.63;100.00;101303.97;12896005;22;20000;-83
2022/11/14 10:40:35;;;;;;;45.80;26.38;;;;;;;7.33;100.00;101211.50;12898863;22;20042;-83
2022/11/14 10:45:48;;;;;;;42.13;24.90;;;;;;;7.84;100.00;101292.59;12899659;22;20094;-84
2022/11/14 10:51:01;;;;;;;44.17;26.05;;;;;;;7.87;100.00;101314.09;12923527;22;20007;-83
2022/11/14 10:56:01;;;;;;;40.80;24.30;;;;;;;7.01;100.00;101200.63;12892929;22;20011;-84
2022/11/14 11:01:34;;;;;;;43.83;24.17;;;;;;;8.24;100.00;101352.50;12915353;22;20387;-84
2022/11/14 11:06:35;;;;;;;40.00;23.17;;;;;;;8.37;100.00;101336.97;12914708;22;20422;-83
2022/11/14 11:11:40;;;;;;;39.40;23.63;;;;;;;8.53;100.00;101330.91;12890552;22;20000;-84
2022/11/14 11:16:40;;;;;;;37.80;22.73;;;;;;;8.66;100.00;101297.81;12865293;22;20007;-84
2022/11/14 11:21:51;;;;;;;38.67;23.42;;;;;;;8.55;100.00;101232.72;12916086;22;20015;-84
2022/11/14 11:27:19;;;;;;;36.20;23.33;;;;;;;9.20;100.00;101292.41;12891397;22;20023;-84
2022/11/14 11:32:25;;;;;;;42.53;24.85;;;;;;;8.48;100.00;101161.47;12913369;22;20012;-85
2022/11/14 11:37:38;;;;;;;40.92;22.38;;;;;;;8.53;100.00;101107.78;12890285;22;20015;-85
2022/11/14 11:42:46;;;;;;;38.45;22.40;;;;;;;9.80;100.00;101283.16;12891573;22;20011;-84
2022/11/14 11:48:08;;;;;;;37.97;22.42;;;;;;;9.78;100.00;101273.47;12890646;22;20039;-85
2022/11/14 11:53:16;;;;;;;37.30;22.60;;;;;;;9.60;100.00;101228.53;12940172;22;20004;-85
2022/11/14 11:58:21;;;;;;;39.63;23.67;;;;;;;9.69;100.00;101179.50;12941663;22;20425;-84
2022/11/14 12:03:23;;;;;;;38.00;23.27;;;;;;;9.58;100.00;101156.44;12916643;22;20016;-85
2022/11/14 12:08:45;;;;;;;33.50;21.02;;;;;;;10.42;100.00;101230.34;12892212;22;20004;-85
2022/11/14 12:14:10;;;;;;;35.25;20.98;;;;;;;10.36;100.00;101224.97;12945496;22;20012;-85
2022/11/14 12:19:38;;;;;;;32.40;20.70;;;;;;;10.24;100.00;101228.56;12943144;22;20011;-85
2022/11/14 12:25:15;;;;;;;35.97;20.52;;;;;;;9.56;100.00;101133.88;12943411;22;20461;-85
2022/11/14 12:30:17;;;;;;;32.47;20.23;;;;;;;8.86;100.00;101009.25;12915613;22;20533;-85
2022/11/14 12:35:51;;;;;;;34.58;20.67;;;;;;;10.06;100.00;101206.72;12942371;22;20012;-84
2022/11/14 12:40:53;;;;;;;28.92;18.98;;;;;;;9.25;100.00;101059.00;12916160;22;20437;-85
2022/11/14 12:45:57;;;;;;;34.58;20.20;;;;;;;10.48;100.00;101148.69;12916511;22;20008;-85
2022/11/14 12:50:58;;;;;;;27.38;19.38;;;;;;;10.43;100.00;101116.38;12890758;22;20079;-84
2022/11/14 12:56:07;;;;;;;29.00;18.20;;;;;;;10.64;100.00;101043.22;12916320;22;20015;-82
2022/11/14 13:01:23;;;;;;;30.90;18.77;;;;;;;11.77;100.00;101133.06;12917291;22;20046;-83
2022/11/14 13:06:36;;;;;;;30.73;18.80;;;;;;;11.22;100.00;100993.38;12952497;22;20095;-84
2022/11/14 13:22:39;;;;;;;27.08;17.88;;;;;;;11.56;100.00;101073.22;12972426;22;20449;-83
2022/11/14 13:27:40;;;;;;;26.85;17.88;;;;;;;10.02;100.00;100999.22;12944596;22;20015;-85
2022/11/14 13:32:40;;;;;;;29.10;18.60;;;;;;;10.26;100.00;101165.03;12918205;22;20368;-84
2022/11/14 13:38:07;;;;;;;31.58;20.33;;;;;;;10.02;100.00;101189.84;12968691;22;20010;-85
2022/11/14 13:43:35;;;;;;;29.65;18.23;;;;;;;9.09;100.00;101057.84;12942274;22;20020;-83
2022/11/14 13:48:57;;;;;;;28.58;18.98;;;;;;;9.88;100.00;101192.03;12944561;22;20024;-86
2022/11/14 13:53:58;;;;;;;31.55;20.10;;;;;;;8.91;100.00;101084.56;12970634;22;20003;-83
2022/11/14 13:59:32;;;;;;;34.40;19.48;;;;;;;9.33;100.00;101172.38;12917894;22;20018;-87
2022/11/14 14:04:55;;;;;;;30.60;19.35;;;;;;;8.81;100.00;101126.34;12969526;22;20463;-85
2022/11/14 14:10:24;;;;;;;34.38;20.42;;;;;;;8.85;100.00;101144.84;12943864;22;20078;-85
2022/11/14 14:15:43;;;;;;;29.70;19.33;;;;;;;8.75;100.00;101160.25;12967491;22;20254;-86
2022/11/14 14:21:02;;;;;;;33.08;19.40;;;;;;;7.88;100.00;101044.34;12969107;22;20020;-86
2022/11/14 14:26:27;;;;;;;31.02;18.25;;;;;;;8.52;100.00;101161.03;12947342;22;20008;-86
2022/11/14 14:31:35;;;;;;;27.63;16.35;;;;;;;7.83;100.00;101049.72;12968423;22;20147;-86
2022/11/14 14:36:35;;;;;;;30.50;18.23;;;;;;;7.79;100.00;101075.91;12917843;22;20031;-86
2022/11/14 14:41:35;;;;;;;32.60;19.35;;;;;;;7.98;100.00;101123.31;12917003;22;20022;-86
2022/11/14 14:46:36;;;;;;;31.08;18.50;;;;;;;7.30;100.00;101052.25;12919845;22;20006;-86
2022/11/14 14:51:41;;;;;;;26.75;17.30;;;;;;;7.91;100.00;101151.88;12943771;22;20444;-86
2022/11/14 14:56:51;;;;;;;33.15;18.38;;;;;;;7.15;100.00;101056.25;12920303;22;20014;-85
2022/11/14 15:01:54;;;;;;;36.33;19.25;;;;;;;6.97;100.00;101042.53;12918171;22;20031;-85
2022/11/14 15:06:56;;;;;;;30.67;18.42;;;;;;;6.91;100.00;101068.91;12919572;22;20491;-86
2022/11/14 15:11:57;;;;;;;32.80;19.23;;;;;;;6.34;100.00;100991.53;12946164;22;20008;-86
2022/11/14 15:16:58;;;;;;;35.50;19.42;;;;;;;6.66;100.00;101061.53;12920346;22;20448;-86
2022/11/14 15:22:20;;;;;;;33.75;20.30;;;;;;;6.66;100.00;101080.69;12919715;22;20023;-85
2022/11/14 15:27:21;;;;;;;39.03;21.08;;;;;;;6.66;100.00;101104.47;12919078;22;20067;-85
2022/11/14 15:32:25;;;;;;;31.00;18.30;;;;;;;6.60;100.00;101094.44;12919448;22;20020;-85
2022/11/14 15:37:26;;;;;;;33.47;20.17;;;;;;;6.16;100.00;101061.50;12895796;22;19999;-85
2022/11/14 15:42:30;;;;;;;33.72;20.00;;;;;;;5.94;100.00;101058.25;12918735;22;20062;-86
2022/11/14 15:47:36;;;;;;;36.95;21.73;;;;;;;5.83;100.00;101076.16;12944741;22;20345;-86
2022/11/14 15:52:38;;;;;;;36.73;21.13;;;;;;;5.44;100.00;101036.22;12970472;22;20057;-86
2022/11/14 15:57:38;;;;;;;36.97;20.92;;;;;;;5.66;100.00;101086.75;12893638;22;20019;-85
2022/11/14 16:02:57;;;;;;;36.45;22.55;;;;;;;5.61;100.00;101096.66;12943159;22;20019;-87
2022/11/14 16:07:58;;;;;;;34.42;20.50;;;;;;;4.87;100.00;101007.84;12967290;22;20012;-86
2022/11/14 16:12:58;;;;;;;38.13;22.17;;;;;;;4.70;100.00;101015.66;12944933;22;20032;-86
2022/11/14 16:17:59;;;;;;;36.78;22.52;;;;;;;3.95;100.00;100890.53;12928434;22;20004;-87
2022/11/14 16:22:59;;;;;;;34.35;21.30;;;;;;;4.98;100.00;101010.78;12947241;22;20337;-87
2022/11/14 16:28:00;;;;;;;38.60;22.00;;;;;;;4.86;100.00;100955.19;12917425;22;20024;-88
2022/11/14 16:33:01;;;;;;;38.97;20.98;;;;;;;5.66;100.00;101028.53;12917015;22;21005;-88
2022/11/14 16:38:01;;;;;;;41.78;22.75;;;;;;;5.19;100.00;100929.66;12906057;22;20026;-88
2022/11/14 16:43:02;;;;;;;34.47;20.50;;;;;;;5.73;100.00;100998.47;12915004;22;20029;-88
2022/11/14 16:48:02;;;;;;;40.40;23.63;;;;;;;5.21;100.00;100946.66;12916178;22;20007;-88
2022/11/14 16:53:03;;;;;;;38.28;23.88;;;;;;;5.30;100.00;100901.66;12916243;22;20004;-88
2022/11/14 16:58:04;;;;;;;40.20;23.20;;;;;;;6.58;100.00;101146.63;12966800;22;20446;-88
2022/11/14 17:03:04;;;;;;;39.20;22.90;;;;;;;4.92;100.00;100856.13;12917488;22;20441;-88
2022/11/14 17:08:05;;;;;;;42.08;23.50;;;;;;;4.23;100.00;100779.41;12916713;22;20418;-88
2022/11/14 17:13:05;;;;;;;47.63;25.20;;;;;;;5.00;100.00;100955.97;12941632;22;20302;-87
2022/11/14 17:18:06;;;;;;;44.85;24.55;;;;;;;5.31;100.00;101041.72;12914464;22;20066;-86
2022/11/14 17:23:06;;;;;;;46.30;25.65;;;;;;;4.58;100.00;100922.75;12914493;22;20016;-87
2022/11/14 17:28:07;;;;;;;43.75;23.25;;;;;;;4.89;100.00;100965.66;12943226;22;20020;-88
2022/11/14 17:33:08;;;;;;;49.33;26.92;;;;;;;5.03;100.00;101060.06;12919009;22;20012;-87
2022/11/14 17:38:08;;;;;;;49.20;26.30;;;;;;;4.87;100.00;101008.69;12944210;22;20090;-87
2022/11/14 17:43:09;;;;;;;52.13;28.73;;;;;;;4.21;100.00;100920.47;12922558;22;20039;-86
2022/11/14 17:48:10;;;;;;;52.55;29.15;;;;;;;4.14;100.00;100922.38;12923045;22;20008;-87
2022/11/14 17:53:10;;;;;;;54.97;29.00;;;;;;;4.30;100.00;100989.25;12924847;22;20030;-87
2022/11/14 17:58:11;;;;;;;60.47;29.27;;;;;;;3.57;100.00;100867.47;12925514;22;20004;-86
2022/11/14 18:03:12;;;;;;;51.45;28.23;;;;;;;4.04;100.00;100985.47;12949732;22;20050;-87
2022/11/14 18:08:12;;;;;;;65.15;31.25;;;;;;;4.62;100.00;101072.06;12977839;22;20337;-87
2022/11/14 18:13:13;;;;;;;55.83;29.42;;;;;;;3.73;100.00;100931.59;12924890;22;20000;-87
2022/11/14 18:18:14;;;;;;;64.20;32.97;;;;;;;4.32;100.00;101006.25;12926345;22;20007;-87
2022/11/14 18:23:14;;;;;;;68.28;32.03;;;;;;;4.01;100.00;100998.66;12981632;22;20020;-87
2022/11/14 18:28:15;;;;;;;63.30;31.35;;;;;;;4.12;100.00;100967.25;12893174;22;20015;-86
2022/11/14 18:33:16;;;;;;;63.25;31.58;;;;;;;3.40;100.00;100833.56;12936590;22;20003;-86
2022/11/14 18:38:17;;;;;;;61.65;31.40;;;;;;;5.07;100.00;101082.31;12899456;22;20368;-86
2022/11/14 18:43:17;;;;;;;57.70;28.92;;;;;;;5.22;100.00;101088.34;12939160;22;20030;-88
2022/11/14 18:48:18;;;;;;;56.67;32.05;;;;;;;3.70;100.00;100789.56;12909207;22;20003;-89
2022/11/14 18:53:19;;;;;;;62.95;31.70;;;;;;;3.84;100.00;100791.25;12953194;22;20447;-88
2022/11/14 18:58:19;;;;;;;55.45;28.88;;;;;;;4.62;100.00;100916.63;12910817;22;20042;-88
2022/11/14 19:03:20;;;;;;;62.72;30.95;;;;;;;3.96;100.00;100764.19;12898616;22;20383;-87
2022/11/14 19:08:21;;;;;;;52.40;28.38;;;;;;;5.28;100.00;101004.78;12920958;22;20003;-88
2022/11/14 19:13:24;;;;;;;56.22;30.27;;;;;;;4.74;100.00;100894.16;12897045;22;20709;-88
2022/11/14 19:18:25;;;;;;;53.55;28.88;;;;;;;4.71;100.00;100861.84;12908720;22;19996;-88
2022/11/14 19:23:26;;;;;;;58.33;30.17;;;;;;;4.21;100.00;100751.53;12921879;22;20350;-87
2022/11/14 19:28:28;;;;;;;52.83;29.23;;;;;;;4.76;100.00;100864.78;12898039;22;20027;-87
2022/11/14 19:33:29;;;;;;;55.55;30.40;;;;;;;4.65;100.00;100828.97;12893652;22;20544;-87
2022/11/14 19:38:30;;;;;;;50.85;28.38;;;;;;;4.24;100.00;100756.56;12913099;22;20330;-85
2022/11/14 19:43:33;;;;;;;46.53;27.70;;;;;;;4.35;100.00;100781.47;12920799;22;20058;-87
2022/11/14 19:48:35;;;;;;;48.85;25.63;;;;;;;5.17;100.00;100871.72;12918653;22;20373;-87
2022/11/14 19:53:37;;;;;;;43.50;25.48;;;;;;;5.40;100.00;100903.94;12904925;22;20023;-86
2022/11/14 19:58:38;;;;;;;40.58;24.83;;;;;;;5.44;100.00;100916.91;12904752;22;20004;-87
2022/11/14 20:03:39;;;;;;;47.92;26.50;;;;;;;5.68;100.00;100974.53;12903675;22;20020;-87
2022/11/14 20:08:39;;;;;;;43.75;24.42;;;;;;;5.45;100.00;100929.50;12959846;22;20003;-87
2022/11/14 20:13:41;;;;;;;43.60;25.30;;;;;;;4.87;100.00;100850.47;12930169;22;20137;-87
2022/11/14 20:18:45;;;;;;;47.13;25.90;;;;;;;4.77;100.00;100806.44;12946108;22;20087;-86
2022/11/14 20:23:45;;;;;;;48.55;25.45;;;;;;;4.19;100.00;100673.78;12937974;22;20015;-87
2022/11/14 20:28:46;;;;;;;46.88;24.70;;;;;;;5.01;100.00;100813.03;12876345;22;20118;-87
2022/11/14 20:33:48;;;;;;;45.22;27.58;;;;;;;5.39;100.00;100858.56;12883553;22;20022;-86
2022/11/14 20:38:48;;;;;;;44.72;23.85;;;;;;;4.38;100.00;100730.09;12883070;22;20110;-87
2022/11/14 20:43:49;;;;;;;44.15;23.35;;;;;;;5.26;100.00;100843.09;12936138;22;20061;-87
2022/11/14 20:48:50;;;;;;;43.42;24.83;;;;;;;5.03;100.00;100803.56;12889650;22;20445;-88
2022/11/14 20:53:52;;;;;;;44.03;23.63;;;;;;;5.40;100.00;100827.47;12902356;22;20007;-88
2022/11/14 20:58:52;;;;;;;42.65;24.17;;;;;;;5.31;100.00;100810.50;12927029;22;20016;-87
2022/11/14 21:03:53;;;;;;;39.95;24.20;;;;;;;5.11;100.00;100775.19;12923870;22;20019;-87
2022/11/14 21:08:53;;;;;;;42.70;23.92;;;;;;;5.18;100.00;100816.06;12901428;22;20314;-88
2022/11/14 21:14:03;;;;;;;47.33;25.42;;;;;;;5.58;100.00;100818.50;12892989;22;20008;-87
2022/11/14 21:19:04;;;;;;;39.67;23.48;;;;;;;5.93;100.00;100903.53;12853229;22;20541;-88
2022/11/14 21:24:05;;;;;;;44.40;23.67;;;;;;;5.23;100.00;100767.97;12870637;22;20073;-88
2022/11/14 21:29:09;;;;;;;39.97;23.42;;;;;;;6.03;100.00;100901.16;12866380;22;20102;-89
2022/11/14 21:34:11;;;;;;;40.20;23.17;;;;;;;5.26;100.00;100796.69;12902053;22;20372;-89
2022/11/14 21:39:13;;;;;;;41.28;23.55;;;;;;;6.13;100.00;100888.91;12908970;22;20008;-88
2022/11/14 21:44:16;;;;;;;40.92;25.27;;;;;;;4.72;100.00;100673.47;12869784;22;20012;-87
2022/11/14 21:49:20;;;;;;;41.58;25.50;;;;;;;5.11;100.00;100741.63;12943454;22;20007;-87
2022/11/14 21:54:28;;;;;;;42.00;24.27;;;;;;;5.96;100.00;100869.50;12875174;22;20044;-87
2022/11/14 21:59:30;;;;;;;40.65;23.25;;;;;;;4.69;100.00;100692.16;12849424;22;20015;-88
2022/11/14 22:04:31;;;;;;;44.15;26.10;;;;;;;5.33;100.00;100731.97;12820250;22;20023;-87
2022/11/14 22:09:32;;;;;;;42.38;25.33;;;;;;;5.74;100.00;100834.34;12870286;22;20003;-87
2022/11/14 22:14:33;;;;;;;44.15;25.13;;;;;;;5.19;100.00;100730.44;12918555;22;20467;-87
2022/11/14 22:19:33;;;;;;;41.42;24.65;;;;;;;5.67;100.00;100825.38;12858653;22;20010;-87
2022/11/14 22:24:34;;;;;;;43.35;24.90;;;;;;;5.48;100.00;100778.06;12845578;22;20050;-88
2022/11/14 22:29:35;;;;;;;41.05;24.60;;;;;;;5.69;100.00;100812.34;12809164;22;20020;-88
2022/11/14 22:34:37;;;;;;;41.13;24.20;;;;;;;5.74;100.00;100807.00;12864632;22;20014;-88
2022/11/14 22:39:38;;;;;;;41.83;24.13;;;;;;;5.52;100.00;100787.47;12859395;22;20010;-88
2022/11/14 22:44:39;;;;;;;44.97;24.58;;;;;;;5.68;100.00;100807.91;12838191;22;20050;-87
2022/11/14 22:49:40;;;;;;;41.03;24.60;;;;;;;6.54;100.00;100937.50;12873979;22;20114;-88
2022/11/14 22:54:41;;;;;;;39.90;24.73;;;;;;;5.31;100.00;100747.72;12815460;22;20039;-87
2022/11/14 22:59:41;;;;;;;42.95;24.85;;;;;;;4.99;100.00;100648.72;12905975;22;20004;-88
2022/11/14 23:04:42;;;;;;;41.35;22.95;;;;;;;6.05;100.00;100825.25;12878890;22;20016;-88
2022/11/14 23:09:42;;;;;;;40.47;22.52;;;;;;;6.36;100.00;100863.63;12881267;22;20040;-87
2022/11/14 23:14:43;;;;;;;41.15;25.02;;;;;;;5.01;100.00;100668.44;12867192;22;20063;-87
2022/11/14 23:19:44;;;;;;;37.00;22.25;;;;;;;5.59;100.00;100765.56;12868516;22;20298;-87
2022/11/14 23:24:44;;;;;;;40.75;24.65;;;;;;;5.51;100.00;100746.75;12889780;22;20467;-87
2022/11/14 23:29:45;;;;;;;37.30;22.38;;;;;;;5.76;100.00;100785.78;12892747;22;20440;-87
2022/11/14 23:34:46;;;;;;;37.30;22.73;;;;;;;5.10;100.00;100653.44;12877316;22;20004;-86
2022/11/14 23:39:46;;;;;;;39.85;21.88;;;;;;;5.15;100.00;100655.50;12881855;22;20023;-87
2022/11/14 23:44:47;;;;;;;37.38;21.48;;;;;;;5.12;100.00;100683.25;12902058;22;20031;-87
2022/11/14 23:49:47;;;;;;;33.95;20.42;;;;;;;5.64;100.00;100752.06;12863583;22;20018;-86
2022/11/14 23:54:48;;;;;;;36.97;22.52;;;;;;;5.37;100.00;100672.28;12885176;22;20007;-87
2022/11/14 23:59:49;;;;;;;34.42;21.63;;;;;;;5.13;100.00;100660.38;12901173;22;20063;-87
